Tiempo atmosférico en la estación meteorológica de Morales del Toro, Zamora (710 m.)



Fecha
DESCASC
Temp. máxima en grados centígrados (hora)
DESCASC
Temp. mínima en grados centígrados (hora)
DESCASC
Temp. media en grados centígrados
DESCASC
Racha de viento máxima en m/sg (hora)
DESCASC
Velocidad máxima media en intervalos de 10 minutos(hora)
DESCASC
Precipitaciones diarias en mm
DESCASC
Precipitaciones de 00:00 a 06:00 en mm
DESCASC
Precipitaciones de 06:00 a 12:00 en mm
DESCASC
Precipitaciones de 12:00 a 18:00 en mm
DESCASC
Precipitaciones de 18:00 a 24:00 en mm
DESCASC
13-02-2020 15 (16:10) 6.4 (23:40) 10.7 12.22 (17:00) 8.89 (17:00) 0 0 0 0 0
12-02-2020 17.1 (14:50) 6 (08:40) 11.6 3.89 (17:00) 2.78 (17:00) 0 0 0 0 0
11-02-2020 14.1 (15:30) 5.6 (05:10) 9.9 6.11 (06:10) 4.44 (06:10) 0 0 0 0 0
10-02-2020 14.4 (15:00) 9.1 (00:00) 11.8 11.94 (16:20) 9.17 (15:40) 0 0 0 0 0
09-02-2020 13.5 (14:00) 2.9 (00:00) 8.2 10.83 (15:10) 8.33 (15:20) 0 0 0 0 0
08-02-2020 14.2 (15:40) 3.1 (00:00) 8.6 10 (15:30) 7.78 (13:50) 2.4 0 2.4 0 0
07-02-2020 14.7 (14:40) 1.6 (00:00) 8.1 5.83 (17:20) 4.17 (17:20) 0 0 0 0 0
06-02-2020 15.9 (16:00) -2 (-00:0) 6.9 3.89 (00:20) 3.33 (00:30) 0 0 0 0 0
05-02-2020 12.3 (16:10) -0.5 (-00:0) 5.9 8.06 (11:30) 5.56 (12:40) 0 0 0 0 0
04-02-2020 15.2 (16:40) 2.1 (00:00) 8.6 6.67 (23:00) 5 (23:00) 0.2 0 0.2 0 0
03-02-2020 16.4 (17:20) 3.9 (06:40) 10.1 6.11 (14:00) 4.72 (14:00) 0 0 0 0 0
02-02-2020 19.2 (16:30) 7.8 (00:00) 13.5 7.22 (11:10) 5.28 (11:20) 0 0 0 0 0
01-02-2020 17.1 (16:40) 9.8 (00:00) 13.5 12.5 (04:20) 9.17 (11:30) 0.2 0.2 0 0 0
31-01-2020 14.8 (16:20) 9.4 (00:00) 12.1 8.89 (13:50) 6.67 (14:00) 0.8 0.4 0 0 0.4
30-01-2020 10.6 (15:50) 6.8 (00:00) 8.7 9.17 (13:50) 6.39 (13:50) 2 0 0.2 0.8 1
29-01-2020 11.6 (15:50) 8.6 (00:00) 10.1 11.11 (00:10) 8.33 (00:10) 4.2 0 2.2 1.6 0.4
28-01-2020 11.2 (14:40) 8.8 (00:00) 10 12.5 (00:10) 9.17 (00:10) 5 0.4 2 2.4 0.2
27-01-2020 10.3 (13:40) 4 (00:00) 7.2 18.06 (14:40) 13.06 (14:40) 0.2 0 0.2 0 0
26-01-2020 9.3 (15:20) -1 (-00:0) 4.2 7.5 (16:00) 5.28 (15:50) 0.2 0.2 0 0 0
25-01-2020 8 (16:00) 1.2 (00:00) 4.6 5.28 (06:50) 4.44 (06:50) 2.6 0 2.2 0.4 0
24-01-2020 10.6 (12:50) 1.8 (00:00) 6.2 5.56 (13:10) 3.61 (14:10) 1.4 0 1 0.2 0.2
23-01-2020 10.8 (15:20) -1.1 (-00:0) 4.9 8.89 (00:50) 6.11 (00:50) 0 0 0 0 0
22-01-2020 11.3 (15:40) 2.9 (00:00) 7.1 16.67 (03:40) 12.5 (03:50) 0 0 0 0 0
21-01-2020 5.8 (14:20) 0.4 (00:00) 3.1 21.39 (10:50) 16.94 (12:40) 0 0 0 0 0
20-01-2020 3.5 (15:00) -0.9 (-00:0) 1.3 22.78 (11:30) 16.67 (11:30) 0 0 0 0 0
19-01-2020 8.1 (13:50) 1.2 (00:00) 4.7 22.5 (12:20) 16.67 (17:00) 0.2 0.2 0 0 0
18-01-2020 12.9 (15:40) 3.4 (00:00) 8.1 21.39 (18:10) 15 (18:10) 1.8 0 1.2 0 0.6

Gráficas

Temp. máximas Temp. mínimas Temp. medias Precipitaciones Rachas de viento máximas Velocidades máximas media en intervalos de 10 minutos

Datos horarios

Fecha y hora oficial Temperatura (ºC) Velocidad del viento (km/h) Dirección del viento Racha (km/h) Dirección de racha Precipitación (mm) Presión (hPa) Tendencia (hPa) Humedad (%)
2020-02-16 23:00:00 11.4 21 Sudoeste 36 Sudoeste 0 -- -- 81
2020-02-16 22:00:00 11.7 28 Sudoeste 38 Sudoeste 0 -- -- 80
2020-02-16 21:00:00 11.8 23 Sudoeste 32 Sudoeste 0 -- -- 81
2020-02-16 20:00:00 12.3 21 Sudoeste 39 Sudoeste 0 -- -- 77
2020-02-16 19:00:00 13.1 22 Sudoeste 33 Sudoeste 0 -- -- 73
2020-02-16 18:00:00 13.8 22 Oeste 41 Oeste 0 -- -- 70
2020-02-16 17:00:00 15.3 30 Oeste 40 Oeste 0 -- -- 66
2020-02-16 16:00:00 16 29 Oeste 43 Sudoeste 0 -- -- 65
2020-02-16 15:00:00 16.6 28 Sudoeste 39 Sudoeste 0 -- -- 62
2020-02-16 14:00:00 15.2 24 Sudoeste 35 Oeste 0 -- -- 68
2020-02-16 13:00:00 14.4 29 Sudoeste 37 Sudoeste 0 -- -- 66
2020-02-16 12:00:00 14.1 28 Sudoeste 37 Sudoeste 0 -- -- 72
2020-02-16 11:00:00 10.3 5 Sur 17 Sudeste 0 -- -- 85
2020-02-16 10:00:00 7.2 9 Sudeste 15 Sudeste 0 -- -- 94
2020-02-16 09:00:00 4.7 8 Sudeste 17 Sudeste 0 -- -- 98
2020-02-16 08:00:00 3.9 8 Sudeste 13 Sudeste 0 -- -- 98
2020-02-16 07:00:00 5.1 6 Sudeste 11 Sudeste 0 -- -- 96
2020-02-16 06:00:00 4.9 7 Sur 15 Sur 0 -- -- 96
2020-02-16 05:00:00 3.5 7 Sudeste 11 Sudeste 0 -- -- 100
2020-02-16 04:00:00 2.3 4 Este 9 Sudeste 0 -- -- 99
2020-02-16 03:00:00 4 5 Sudeste 7 Sudeste 0 -- -- 99
2020-02-16 02:00:00 4.7 3 Este 6 Este 0 -- -- 96
2020-02-16 01:00:00 5.6 0 Calma 6 Sur 0 -- -- 95
2020-02-16 00:00:00 6 0 Calma 12 Sudeste 0 -- -- 97
2020-02-15 23:00:00 6.6 8 Sudeste 11 Sudeste 0 -- -- 96
2020-02-15 22:00:00 6.1 3 Nordeste 8 Nordeste 0 -- -- 94
2020-02-15 21:00:00 7.6 4 Norte 8 Norte 0 -- -- 91
2020-02-15 20:00:00 9.8 0 Calma 3 Sudeste 0 -- -- 86
2020-02-15 19:00:00 11.9 0 Calma 4 Nordeste 0 -- -- 78
2020-02-15 18:00:00 15.1 3 Este 7 Sudeste 0 -- -- 67
2020-02-15 17:00:00 14.2 4 Sudeste 10 Sudeste 0 -- -- 71
2020-02-15 16:00:00 13.3 4 Sudeste 8 Sudeste 0 -- -- 74
2020-02-15 15:00:00 13.6 4 Oeste 10 Sur 0 -- -- 73
2020-02-15 14:00:00 9.5 2 Sudeste 10 Sudeste 0 -- -- 96
2020-02-15 13:00:00 6.1 8 Sudeste 14 Este 0 -- -- 98
2020-02-15 12:00:00 4.9 3 Sudeste 6 Sudeste 0 -- -- 98
2020-02-15 11:00:00 3.1 4 Sudeste 12 Sudeste 0 -- -- 99
2020-02-15 10:00:00 2.6 7 Este 16 Este 0 -- -- 100
2020-02-15 09:00:00 2.2 10 Este 15 Este 0 -- -- 100
2020-02-15 08:00:00 1.9 0 Calma 9 Este 0 -- -- 100
2020-02-15 07:00:00 1.6 0 Calma 8 Noroeste 0 -- -- 100
2020-02-15 06:00:00 0.7 0 Calma 8 Nordeste 0 -- -- 99
2020-02-15 05:00:00 1.5 6 Nordeste 9 Norte 0 -- -- 100
2020-02-15 04:00:00 1.7 8 Nordeste 12 Norte 0 -- -- 99
2020-02-15 03:00:00 2.6 7 Nordeste 11 Sudeste 0 -- -- 97
2020-02-15 02:00:00 4.1 7 Este 13 Este 0 -- -- 98
2020-02-15 01:00:00 3.2 6 Nordeste 13 Este 0 -- -- 95
2020-02-15 00:00:00 3 8 Nordeste 12 Norte 0 -- -- 96
2020-02-14 23:00:00 3.7 8 Nordeste 9 Nordeste 0 -- -- 95
2020-02-14 22:00:00 4.9 6 Nordeste 9 Nordeste 0 -- -- 93
2020-02-14 21:00:00 7.7 3 Nordeste 6 Este 0 -- -- 85
2020-02-14 20:00:00 8.8 4 Nordeste 8 Este 0 -- -- 80
2020-02-14 19:00:00 9.6 7 Este 10 Este 0 -- -- 77
2020-02-14 18:00:00 14.3 4 Sudeste 8 Sur 0 -- -- 62
2020-02-14 17:00:00 15.9 2 Sudoeste 6 Este 0 -- -- 59
2020-02-14 16:00:00 13.3 4 Norte 9 Noroeste 0 -- -- 67
2020-02-14 15:00:00 12.2 4 Sudoeste 10 Oeste 0 -- -- 80
2020-02-14 14:00:00 9.2 5 Oeste 9 Oeste 0 -- -- 93
2020-02-14 13:00:00 7.5 2 Sur 5 Sur 0 -- -- 97
2020-02-14 12:00:00 6.4 3 Sudeste 10 Sudeste 0 -- -- 98
2020-02-14 11:00:00 5 5 Este 9 Sudeste 0 -- -- 100
2020-02-14 10:00:00 3.6 5 Este 11 Este 0 -- -- 100
2020-02-14 09:00:00 1.9 5 Este 9 Sudeste 0 -- -- 100
2020-02-14 08:00:00 2.4 4 Nordeste 8 Este 0 -- -- 100
2020-02-14 07:00:00 2.8 5 Este 12 Este 0 -- -- 100
2020-02-14 06:00:00 3 4 Nordeste 9 Este 0 -- -- 100
2020-02-14 05:00:00 3.4 5 Este 8 Nordeste 0 -- -- 100
2020-02-14 04:00:00 2.8 7 Nordeste 10 Nordeste 0 -- -- 100
2020-02-14 03:00:00 3.5 2 Este 7 Sudeste 0 -- -- 99
2020-02-14 02:00:00 5.5 0 Calma 10 Oeste 0 -- -- 100
2020-02-14 01:00:00 5.4 7 Oeste 9 Oeste 0 -- -- 99
2020-02-14 00:00:00 6.4 4 Oeste 8 Oeste 0 -- -- 98
2020-02-13 23:00:00 7.1 7 Oeste 11 Oeste 0 -- -- 97
2020-02-13 22:00:00 8 8 Oeste 18 Oeste 0 -- -- 93
2020-02-13 21:00:00 8.7 14 Oeste 20 Oeste 0 -- -- 89
2020-02-13 20:00:00 8.8 13 Sudoeste 18 Sudoeste 0 -- -- 86
2020-02-13 19:00:00 10.5 15 Sudoeste 30 Sudoeste 0 -- -- 78
2020-02-13 18:00:00 13.3 26 Oeste 42 Sudoeste 0 -- -- 65
2020-02-13 17:00:00 14 32 Oeste 44 Oeste 0 -- -- 61
2020-02-13 16:00:00 14.1 19 Oeste 30 Oeste 0 -- -- 71
2020-02-13 15:00:00 13.2 19 Sudoeste 33 Oeste 0 -- -- 72
2020-02-13 14:00:00 12.7 25 Sudoeste 34 Sudoeste 0 -- -- 76
2020-02-13 13:00:00 11.9 26 Sudoeste 38 Sudoeste 0 -- -- 77
2020-02-13 12:00:00 11 22 Sudoeste 31 Sudoeste 0 -- -- 81
2020-02-13 11:00:00 10.8 18 Sudoeste 30 Sudoeste 0 -- -- 83
2020-02-13 10:00:00 10.2 16 Sudoeste 31 Sudoeste 0 -- -- 89
2020-02-13 09:00:00 9.4 13 Sudoeste 24 Sudoeste 0 -- -- 93
2020-02-13 08:00:00 9.2 16 Sudoeste 27 Sudoeste 0 -- -- 94
2020-02-13 07:00:00 9.5 18 Sudoeste 32 Sudoeste 0 -- -- 95
2020-02-13 06:00:00 9.9 23 Oeste 30 Oeste 0 -- -- 93
2020-02-13 05:00:00 9.9 21 Oeste 35 Sudoeste 0 -- -- 96
2020-02-13 04:00:00 9.7 15 Sudoeste 24 Sudoeste 0 -- -- 96
2020-02-13 03:00:00 9.5 10 Sudoeste 15 Sudoeste 0 -- -- 95
2020-02-13 02:00:00 9 10 Sudoeste 14 Sudoeste 0 -- -- 93
2020-02-13 01:00:00 9.8 7 Sur 13 Sur 0 -- -- 89
2020-02-13 00:00:00 9.9 4 Sur 6 Sur 0 -- -- 91
2020-02-12 23:00:00 10 0 Calma 5 Sudeste 0 -- -- 90
2020-02-12 22:00:00 10.5 0 Calma 5 Sur 0 -- -- 88
2020-02-12 21:00:00 10.8 0 Calma 4 Nordeste 0 -- -- 86
2020-02-12 20:00:00 11.4 2 Nordeste 6 Sur 0 -- -- 83
2020-02-12 19:00:00 12.5 4 Sur 6 Sudoeste 0 -- -- 77
2020-02-12 18:00:00 13.3 5 Sudoeste 14 Sudoeste 0 -- -- 71
2020-02-12 17:00:00 14.6 10 Sur 14 Sur 0 -- -- 66
2020-02-12 16:00:00 14.6 6 Sudoeste 12 Sudoeste 0 -- -- 65
2020-02-12 15:00:00 15.8 6 Sur 9 Sudoeste 0 -- -- 60
2020-02-12 14:00:00 15.7 2 Norte 8 Nordeste 0 -- -- 61
2020-02-12 13:00:00 14.3 3 Nordeste 8 Sudeste 0 -- -- 68
2020-02-12 12:00:00 10.4 5 Este 10 Este 0 -- -- 94
2020-02-12 11:00:00 8.6 4 Este 7 Este 0 -- -- 97
2020-02-12 10:00:00 7.4 0 Calma 3 Nordeste 0 -- -- 98
2020-02-12 09:00:00 6.4 3 Nordeste 5 Noroeste 0 -- -- 98
2020-02-12 08:00:00 6.5 4 Nordeste 8 Este 0 -- -- 98
2020-02-12 07:00:00 6.5 3 Este 9 Nordeste 0 -- -- 97
2020-02-12 06:00:00 7.2 6 Norte 11 Norte 0 -- -- 95
2020-02-12 05:00:00 8 5 Norte 11 Norte 0 -- -- 94
2020-02-12 04:00:00 8.6 6 Noroeste 9 Noroeste 0 -- -- 96
2020-02-12 03:00:00 8.8 6 Norte 13 Norte 0 -- -- 98
2020-02-12 02:00:00 8.8 6 Norte 13 Norte 0 -- -- 98
2020-02-12 01:00:00 9 6 Sudeste 8 Sudeste 0 -- -- 96
2020-02-12 00:00:00 9.5 0 Calma 8 Sudeste 0 -- -- 96
2020-02-11 23:00:00 9.7 4 Sudeste 6 Sudeste 0 -- -- 93
2020-02-11 22:00:00 10.6 0 Calma 3 Oeste 0 -- -- 90
2020-02-11 21:00:00 11 2 Norte 6 Sudoeste 0 -- -- 89
2020-02-11 20:00:00 11.4 2 Sudoeste 6 Sudoeste 0 -- -- 87
2020-02-11 19:00:00 12 6 Sudoeste 13 Oeste 0 -- -- 84
2020-02-11 18:00:00 13.2 9 Oeste 13 Oeste 0 -- -- 79
2020-02-11 17:00:00 13.9 4 Sur 10 Sur 0 -- -- 75
2020-02-11 16:00:00 13.9 6 Sur 15 Sudoeste 0 -- -- 75
2020-02-11 15:00:00 13.3 9 Sur 15 Sudoeste 0 -- -- 77
2020-02-11 14:00:00 12.1 9 Sudoeste 15 Oeste 0 -- -- 81
2020-02-11 13:00:00 12.1 7 Oeste 19 Oeste 0 -- -- 81
2020-02-11 12:00:00 10.4 9 Sudoeste 19 Oeste 0 -- -- 87
2020-02-11 11:00:00 8.8 12 Oeste 18 Sudoeste 0 -- -- 99
2020-02-11 10:00:00 7.7 9 Sudoeste 14 Sudoeste 0 -- -- 100
2020-02-11 09:00:00 7.2 9 Sudoeste 13 Sudoeste 0 -- -- 100
2020-02-11 08:00:00 7.1 7 Sudoeste 19 Oeste 0 -- -- 100
2020-02-11 07:00:00 7.1 12 Oeste 22 Sudoeste 0 -- -- 100
2020-02-11 06:00:00 6.7 10 Sudoeste 16 Sudoeste 0 -- -- 99
2020-02-11 05:00:00 5.8 0 Calma 8 Sudoeste 0 -- -- 98
2020-02-11 04:00:00 6.9 3 Sur 10 Sudoeste 0 -- -- 98
2020-02-11 03:00:00 7 7 Sudoeste 12 Sur 0 -- -- 98
2020-02-11 02:00:00 7.4 2 Sudeste 13 Sudoeste 0 -- -- 96
2020-02-11 01:00:00 8.7 8 Sudoeste 17 Sudoeste 0 -- -- 93
2020-02-11 00:00:00 9.2 4 Sudoeste 16 Sudoeste 0 -- -- 93
2020-02-10 23:00:00 9.6 8 Sur 15 Sudoeste 0 -- -- 92
2020-02-10 22:00:00 10 10 Sudoeste 15 Sudoeste 0 -- -- 89
2020-02-10 21:00:00 10.2 6 Sudoeste 16 Sudoeste 0 -- -- 88
2020-02-10 20:00:00 10.9 8 Sudoeste 21 Sudoeste 0 -- -- 85
2020-02-10 19:00:00 11.5 17 Sudoeste 32 Sudoeste 0 -- -- 83
2020-02-10 18:00:00 13.8 28 Sudoeste 42 Sudoeste 0 -- -- 74
2020-02-10 17:00:00 13.2 25 Sudoeste 43 Sudoeste 0 -- -- 76
2020-02-10 16:00:00 13.7 30 Sudoeste 41 Sudoeste 0 -- -- 74
2020-02-10 15:00:00 14.4 27 Sudoeste 35 Sudoeste 0 -- -- 76
2020-02-10 14:00:00 13.7 30 Sudoeste 36 Sudoeste 0 -- -- 77
2020-02-10 13:00:00 13.4 27 Sudoeste 37 Sudoeste 0 -- -- 80
2020-02-10 12:00:00 13.5 24 Sudoeste 39 Sudoeste 0 -- -- 83
2020-02-10 11:00:00 11.7 23 Sudoeste 34 Sudoeste 0 -- -- 89
2020-02-10 10:00:00 10.8 12 Sudoeste 23 Sudoeste 0 -- -- 92
2020-02-10 09:00:00 10.1 12 Sudoeste 19 Sudoeste 0 -- -- 94
2020-02-10 08:00:00 10 14 Sudoeste 22 Sudoeste 0 -- -- 94
2020-02-10 07:00:00 10.2 17 Sudoeste 29 Sudoeste 0 -- -- 93
2020-02-10 06:00:00 10.2 16 Sudoeste 33 Sudoeste 0 -- -- 92
2020-02-10 05:00:00 10.4 21 Sudoeste 28 Sudoeste 0 -- -- 90
2020-02-10 04:00:00 10.1 19 Sudoeste 28 Sudoeste 0 -- -- 90
2020-02-10 03:00:00 10 13 Sudoeste 22 Sudoeste 0 -- -- 89
2020-02-10 02:00:00 9.2 12 Sudoeste 21 Sudoeste 0 -- -- 91
2020-02-10 01:00:00 9.6 11 Sudoeste 19 Sudoeste 0 -- -- 89
2020-02-10 00:00:00 10.2 10 Sudoeste 18 Sudoeste 0 -- -- 87
2020-02-09 23:00:00 10.4 13 Sudoeste 23 Sudoeste 0 -- -- 86
2020-02-09 22:00:00 10.7 13 Sudoeste 19 Sudoeste 0 -- -- 86
2020-02-09 21:00:00 10.8 15 Sudoeste 21 Sudoeste 0 -- -- 85
2020-02-09 20:00:00 11.4 14 Sudoeste 23 Sudoeste 0 -- -- 81
2020-02-09 19:00:00 11.7 18 Sudoeste 30 Sudoeste 0 -- -- 78
2020-02-09 18:00:00 12.3 25 Sudoeste 36 Sudoeste 0 -- -- 73
2020-02-09 17:00:00 12.6 26 Sudoeste 36 Sudoeste 0 -- -- 69
2020-02-09 16:00:00 12.6 27 Oeste 39 Sudoeste 0 -- -- 67
2020-02-09 15:00:00 13.2 26 Sudoeste 37 Oeste 0 -- -- 67
2020-02-09 14:00:00 13.5 25 Sudoeste 36 Sudoeste 0 -- -- 69
2020-02-09 13:00:00 12 28 Sudoeste 37 Oeste 0 -- -- 78
2020-02-09 12:00:00 10.7 15 Sudoeste 25 Sudoeste 0 -- -- 84
2020-02-09 11:00:00 9.5 12 Sudoeste 17 Sudoeste 0 -- -- 91
2020-02-09 10:00:00 8.5 6 Sur 10 Sudoeste 0 -- -- 92
2020-02-09 09:00:00 6.3 4 Sudeste 6 Sudeste 0 -- -- 97
2020-02-09 08:00:00 6.5 4 Sur 8 Sudoeste 0 -- -- 97
2020-02-09 07:00:00 6.3 4 Sudeste 10 Sudeste 0 -- -- 97
2020-02-09 06:00:00 5.4 5 Este 10 Sudeste 0 -- -- 96
2020-02-09 05:00:00 5.5 4 Este 8 Este 0 -- -- 96
2020-02-09 04:00:00 4.6 4 Nordeste 7 Nordeste 0 -- -- 97
2020-02-09 03:00:00 4.2 3 Nordeste 5 Este 0 -- -- 97
2020-02-09 02:00:00 3.3 4 Este 9 Sudeste 0 -- -- 97
2020-02-09 01:00:00 3.5 2 Sudeste 6 Sudeste 0 -- -- 97
2020-02-09 00:00:00 3.1 0 Calma 12 Sudoeste 0 -- -- 95
2020-02-08 23:00:00 4.8 3 Sudoeste 5 Sur 0 -- -- 94
2020-02-08 22:00:00 5.5 3 Sur 5 Sur 0 -- -- 92
2020-02-08 21:00:00 6.6 0 Calma 3 Oeste 0 -- -- 84
2020-02-08 20:00:00 8.2 0 Calma 8 Oeste 0 -- -- 80
2020-02-08 19:00:00 9 5 Oeste 15 Oeste 0 -- -- 76
2020-02-08 18:00:00 12.7 15 Oeste 31 Oeste 0 -- -- 61
2020-02-08 17:00:00 13.2 19 Oeste 28 Oeste 0 -- -- 61
2020-02-08 16:00:00 11.9 15 Oeste 36 Oeste 0 -- -- 69
2020-02-08 15:00:00 13.2 22 Oeste 34 Sudoeste 0 -- -- 63
2020-02-08 14:00:00 12.2 24 Sudoeste 35 Sudoeste 0 -- -- 67
2020-02-08 13:00:00 12.4 21 Sudoeste 34 Oeste 0 -- -- 77
2020-02-08 12:00:00 10.2 17 Sudoeste 25 Sudoeste 0 -- -- 87
2020-02-08 11:00:00 8.3 13 Sudoeste 20 Sudoeste 1.8 -- -- 98
2020-02-08 10:00:00 7.7 9 Sudoeste 14 Sudoeste 0.6 -- -- 96
2020-02-08 09:00:00 7.6 7 Sur 11 Sur 0 -- -- 92
2020-02-08 08:00:00 7.6 5 Sur 13 Sur 0 -- -- 90
2020-02-08 07:00:00 7.8 9 Sur 18 Sur 0 -- -- 89
2020-02-08 06:00:00 7.8 10 Sur 13 Sudoeste 0 -- -- 89
2020-02-08 05:00:00 7.8 6 Sudoeste 12 Sudoeste 0 -- -- 90
2020-02-08 04:00:00 7.8 2 Sudoeste 14 Oeste 0 -- -- 91
2020-02-08 03:00:00 7.4 6 Sudoeste 19 Sudoeste 0 -- -- 92
2020-02-08 02:00:00 7.1 10 Sudoeste 13 Sudoeste 0 -- -- 92
2020-02-08 01:00:00 7.7 8 Sudoeste 14 Sudoeste 0 -- -- 90
2020-02-08 00:00:00 8.5 5 Sur 8 Sur 0 -- -- 87
2020-02-07 23:00:00 7.4 0 Calma 6 Sur 0 -- -- 89
2020-02-07 22:00:00 7.7 0 Calma 3 Oeste 0 -- -- 87
2020-02-07 21:00:00 8.6 0 Calma 9 Sudoeste 0 -- -- 84
2020-02-07 20:00:00 10 7 Sudoeste 11 Oeste 0 -- -- 79
2020-02-07 19:00:00 10.9 4 Oeste 15 Oeste 0 -- -- 74
2020-02-07 18:00:00 12.6 12 Oeste 21 Sudoeste 0 -- -- 66
2020-02-07 17:00:00 13.3 12 Sudoeste 19 Sudoeste 0 -- -- 61
2020-02-07 16:00:00 14.5 5 Sudoeste 15 Oeste 0 -- -- 63
2020-02-07 15:00:00 13.5 8 Oeste 13 Sur 0 -- -- 69
2020-02-07 14:00:00 13.2 6 Sudeste 14 Sudeste 0 -- -- 68
2020-02-07 13:00:00 10.8 6 Sudeste 10 Este 0 -- -- 73
2020-02-07 12:00:00 7.6 6 Este 10 Este 0 -- -- 86
2020-02-07 11:00:00 5.3 4 Este 11 Este 0 -- -- 91
2020-02-07 10:00:00 4 6 Este 14 Este 0 -- -- 95
2020-02-07 09:00:00 2.8 12 Este 17 Este 0 -- -- 98
2020-02-07 08:00:00 1.8 4 Sudeste 10 Este 0 -- -- 97
2020-02-07 07:00:00 2.4 3 Este 9 Nordeste 0 -- -- 96
2020-02-07 06:00:00 1.7 6 Nordeste 9 Nordeste 0 -- -- 96
2020-02-07 05:00:00 1.9 6 Nordeste 8 Nordeste 0 -- -- 95
2020-02-07 04:00:00 2.4 3 Nordeste 11 Norte 0 -- -- 94
2020-02-07 03:00:00 3.4 10 Norte 12 Nordeste 0 -- -- 92
2020-02-07 02:00:00 3.5 6 Norte 9 Norte 0 -- -- 92
2020-02-07 01:00:00 4.1 4 Norte 8 Norte 0 -- -- 91
2020-02-07 00:00:00 4.4 7 Nordeste 9 Nordeste 0 -- -- 90
2020-02-06 23:00:00 4.7 4 Nordeste 6 Nordeste 0 -- -- 90
2020-02-06 22:00:00 5.5 3 Nordeste 11 Norte 0 -- -- 88
2020-02-06 21:00:00 6 9 Nordeste 12 Norte 0 -- -- 87
2020-02-06 20:00:00 7.4 10 Norte 13 Nordeste 0 -- -- 84
2020-02-06 19:00:00 8.9 8 Nordeste 9 Nordeste 0 -- -- 78
2020-02-06 18:00:00 11.5 4 Noroeste 10 Oeste 0 -- -- 66
2020-02-06 17:00:00 13.9 7 Oeste 11 Oeste 0 -- -- 56
2020-02-06 16:00:00 15.9 0 Calma 6 Sudoeste 0 -- -- 51
2020-02-06 15:00:00 13.2 2 Oeste 6 Sur 0 -- -- 59
2020-02-06 14:00:00 14 2 Oeste 8 Oeste 0 -- -- 59
2020-02-06 13:00:00 10.7 2 Norte 6 Nordeste 0 -- -- 64
2020-02-06 12:00:00 8.3 3 Nordeste 7 Este 0 -- -- 71
2020-02-06 11:00:00 3.9 3 Oeste 5 Oeste 0 -- -- 86
2020-02-06 10:00:00 1.1 2 Nordeste 6 Nordeste 0 -- -- 93
2020-02-06 09:00:00 -1.5 6 Nordeste 6 Nordeste 0 -- -- 96
2020-02-06 08:00:00 -1.4 2 Nordeste 7 Nordeste 0 -- -- 97
2020-02-06 07:00:00 -1.3 5 Norte 6 Norte 0 -- -- 96
2020-02-06 06:00:00 -1.5 0 Calma 5 Nordeste 0 -- -- 97
2020-02-06 05:00:00 -1 4 Nordeste 5 Nordeste 0 -- -- 95
2020-02-06 04:00:00 0 0 Calma 5 Norte 0 -- -- 92
2020-02-06 03:00:00 0.3 5 Norte 6 Nordeste 0 -- -- 93
2020-02-06 02:00:00 1 6 Nordeste 13 Nordeste 0 -- -- 91
2020-02-06 01:00:00 1.1 12 Nordeste 14 Nordeste 0 -- -- 91
2020-02-06 00:00:00 2.2 10 Nordeste 13 Norte 0 -- -- 88
2020-02-05 23:00:00 2.8 10 Nordeste 12 Nordeste 0 -- -- 88
2020-02-05 22:00:00 3 8 Nordeste 11 Norte 0 -- -- 89
2020-02-05 21:00:00 4.2 9 Norte 14 Norte 0 -- -- 86
2020-02-05 20:00:00 6.1 8 Norte 9 Norte 0 -- -- 80
2020-02-05 19:00:00 8.3 4 Norte 9 Este 0 -- -- 69
2020-02-05 18:00:00 12.3 8 Este 19 Nordeste 0 -- -- 55
2020-02-05 17:00:00 12 15 Nordeste 22 Nordeste 0 -- -- 53
2020-02-05 16:00:00 12.2 11 Nordeste 19 Nordeste 0 -- -- 55
2020-02-05 15:00:00 11.4 12 Nordeste 19 Nordeste 0 -- -- 59
2020-02-05 14:00:00 10.4 9 Norte 24 Este 0 -- -- 63
2020-02-05 13:00:00 9.1 16 Nordeste 29 Nordeste 0 -- -- 68
2020-02-05 12:00:00 7.4 16 Nordeste 29 Este 0 -- -- 74
2020-02-05 11:00:00 4.6 11 Nordeste 15 Nordeste 0 -- -- 84
2020-02-05 10:00:00 1.9 10 Nordeste 13 Nordeste 0 -- -- 91
2020-02-05 09:00:00 0.4 8 Nordeste 10 Norte 0 -- -- 94
2020-02-05 08:00:00 -0.5 8 Norte 10 Noroeste 0 -- -- 96
2020-02-05 07:00:00 0.8 3 Norte 24 Este 0 -- -- 94
2020-02-05 06:00:00 2.8 18 Este 23 Este 0 -- -- 88
2020-02-05 05:00:00 3.1 18 Nordeste 24 Nordeste 0 -- -- 88
2020-02-05 04:00:00 2.1 11 Nordeste 23 Nordeste 0 -- -- 97
2020-02-05 03:00:00 3.6 14 Nordeste 23 Este 0 -- -- 92
2020-02-05 02:00:00 4.8 13 Este 21 Este 0 -- -- 91
2020-02-05 01:00:00 4.7 11 Nordeste 16 Este 0 -- -- 92
2020-02-05 00:00:00 5.7 10 Nordeste 22 Este 0 -- -- 91
2020-02-04 23:00:00 7 18 Nordeste 24 Nordeste 0 -- -- 89
2020-02-04 22:00:00 6.5 8 Nordeste 14 Nordeste 0 -- -- 95
2020-02-04 21:00:00 6.8 10 Nordeste 13 Nordeste 0 -- -- 97
2020-02-04 20:00:00 8.9 3 Norte 7 Nordeste 0 -- -- 94
2020-02-04 19:00:00 10.1 5 Nordeste 8 Nordeste 0 -- -- 89
2020-02-04 18:00:00 12.7 8 Nordeste 16 Este 0 -- -- 78
2020-02-04 12:00:00 -- -- -- -- -- -- -- -- --
2020-02-04 11:00:00 5.8 10 Norte 17 Norte 0 -- -- 100
2020-02-04 10:00:00 5.2 12 Norte 20 Norte 0 -- -- 100
2020-02-04 09:00:00 3.5 4 Sur 6 Sur 0 -- -- 100
2020-02-04 08:00:00 2.3 4 Norte 6 Sudoeste 0.2 -- -- 100
2020-02-04 07:00:00 2.3 2 Norte 6 Norte 0 -- -- 99
2020-02-04 06:00:00 3 4 Nordeste 10 Nordeste 0 -- -- 100
2020-02-04 05:00:00 3.5 6 Nordeste 12 Nordeste 0 -- -- 99
2020-02-04 04:00:00 4.6 10 Norte 12 Norte 0 -- -- 99
2020-02-04 03:00:00 4.5 6 Norte 8 Norte 0 -- -- 99
2020-02-04 02:00:00 5.5 3 Nordeste 8 Nordeste 0 -- -- 100
2020-02-04 01:00:00 6.3 8 Nordeste 13 Norte 0 -- -- 97
2020-02-04 00:00:00 6.7 11 Nordeste 14 Norte 0 -- -- 97
2020-02-03 23:00:00 7.4 2 Este 10 Norte 0 -- -- 98
2020-02-03 22:00:00 9.8 7 Sudeste 10 Sudeste 0 -- -- 92
2020-02-03 21:00:00 9.5 5 Sudeste 7 Sudeste 0 -- -- 93
2020-02-03 20:00:00 10.3 5 Nordeste 9 Nordeste 0 -- -- 89
2020-02-03 19:00:00 12 4 Oeste 12 Sudoeste 0 -- -- 82
2020-02-03 18:00:00 15.3 10 Sudoeste 15 Sudoeste 0 -- -- 70
2020-02-03 17:00:00 16 6 Sudoeste 13 Sudoeste 0 -- -- 73
2020-02-03 16:00:00 15.1 7 Oeste 16 Oeste 0 -- -- 75
2020-02-03 15:00:00 13.8 11 Noroeste 20 Oeste 0 -- -- 82
2020-02-03 14:00:00 13.1 17 Noroeste 22 Oeste 0 -- -- 85
2020-02-03 13:00:00 12.4 12 Noroeste 16 Oeste 0 -- -- 96
2020-02-03 12:00:00 10 9 Noroeste 14 Noroeste 0 -- -- 97
2020-02-03 11:00:00 7.2 5 Noroeste 10 Oeste 0 -- -- 100
2020-02-03 10:00:00 5 4 Nordeste 6 Nordeste 0 -- -- 100
2020-02-03 09:00:00 4.5 6 Este 13 Este 0 -- -- 100
2020-02-03 08:00:00 4.2 4 Nordeste 9 Nordeste 0 -- -- 100
2020-02-03 07:00:00 3.9 9 Nordeste 12 Norte 0 -- -- 100
2020-02-03 06:00:00 6 7 Este 13 Este 0 -- -- 100
2020-02-03 05:00:00 6.5 7 Este 13 Este 0 -- -- 100
2020-02-03 04:00:00 7.1 9 Este 15 Este 0 -- -- 99
2020-02-03 03:00:00 6.1 8 Nordeste 14 Nordeste 0 -- -- 99
2020-02-03 02:00:00 6.3 10 Nordeste 11 Nordeste 0 -- -- 98
2020-02-03 01:00:00 7.3 7 Nordeste 10 Nordeste 0 -- -- 96
2020-02-03 00:00:00 7.8 9 Nordeste 10 Nordeste 0 -- -- 96
2020-02-02 23:00:00 8.9 6 Nordeste 10 Este 0 -- -- 94
2020-02-02 22:00:00 9.8 3 Este 12 Norte 0 -- -- 93
2020-02-02 21:00:00 11.9 9 Sudoeste 14 Sudoeste 0 -- -- 86
2020-02-02 20:00:00 12.2 3 Sudeste 6 Oeste 0 -- -- 88
2020-02-02 19:00:00 13.5 3 Oeste 12 Sudoeste 0 -- -- 83
2020-02-02 18:00:00 16.3 11 Sudoeste 22 Sudoeste 0 -- -- 72
2020-02-02 17:00:00 18 17 Sudoeste 22 Sudoeste 0 -- -- 60
2020-02-02 16:00:00 18.7 13 Sudoeste 22 Sudoeste 0 -- -- 65
2020-02-02 15:00:00 18.5 12 Sudoeste 19 Sur 0 -- -- 68
2020-02-02 14:00:00 16.9 8 Sudoeste 23 Sudoeste 0 -- -- 74
2020-02-02 13:00:00 16.5 17 Sur 25 Sudoeste 0 -- -- 73
2020-02-02 12:00:00 14.4 18 Sur 26 Sur 0 -- -- 80
2020-02-02 11:00:00 13 16 Sur 22 Sur 0 -- -- 86
2020-02-02 10:00:00 12.1 0 Calma 12 Sur 0 -- -- 90
2020-02-02 09:00:00 10.9 8 Sur 12 Sur 0 -- -- 93
2020-02-02 08:00:00 10.4 5 Sudeste 10 Sudeste 0 -- -- 96
2020-02-02 07:00:00 10.5 3 Sudeste 11 Sur 0 -- -- 96
2020-02-02 06:00:00 10.1 6 Sudeste 10 Sur 0 -- -- 97
2020-02-02 05:00:00 10.3 7 Sudeste 10 Sudeste 0 -- -- 96
2020-02-02 04:00:00 9.9 5 Sudeste 8 Sur 0 -- -- 97
2020-02-02 03:00:00 10 6 Sur 9 Sudeste 0 -- -- 97
2020-02-02 02:00:00 10.1 5 Sur 9 Sur 0 -- -- 97
2020-02-02 01:00:00 10.7 7 Sudoeste 16 Sudoeste 0 -- -- 96
2020-02-02 00:00:00 10.5 16 Sudoeste 20 Sudoeste 0 -- -- 97
2020-02-01 23:00:00 10.4 8 Sur 23 Sudoeste 0 -- -- 96
2020-02-01 22:00:00 12 17 Sudoeste 22 Oeste 0 -- -- 93
2020-02-01 21:00:00 11.2 5 Sudoeste 13 Sudoeste 0 -- -- 93
2020-02-01 20:00:00 11.9 11 Sudoeste 14 Sudoeste 0 -- -- 90
2020-02-01 19:00:00 12.7 6 Sudoeste 24 Sudoeste 0 -- -- 89
2020-02-01 18:00:00 14.3 17 Sudoeste 30 Sudoeste 0 -- -- 83
2020-02-01 17:00:00 17.1 18 Sudoeste 32 Sudoeste 0 -- -- 74
2020-02-01 16:00:00 15.1 19 Sudoeste 33 Sudoeste 0 -- -- 80
2020-02-01 15:00:00 15 26 Sudoeste 36 Oeste 0 -- -- 79
2020-02-01 14:00:00 15.2 28 Sudoeste 41 Sudoeste 0 -- -- 80
2020-02-01 13:00:00 15.1 30 Sudoeste 43 Oeste 0 -- -- 82
2020-02-01 12:00:00 14.2 27 Oeste 44 Sudoeste 0 -- -- 86
2020-02-01 11:00:00 13.1 29 Sudoeste 41 Sudoeste 0 -- -- 90
2020-02-01 10:00:00 12.3 27 Sudoeste 38 Sudoeste 0 -- -- 92
2020-02-01 09:00:00 11.9 24 Sudoeste 37 Sudoeste 0 -- -- 94
2020-02-01 08:00:00 11.7 21 Sudoeste 27 Sudoeste 0 -- -- 95
2020-02-01 07:00:00 11.8 18 Sudoeste 33 Oeste 0 -- -- 95
2020-02-01 06:00:00 12 23 Sudoeste 37 Sudoeste 0 -- -- 94
2020-02-01 05:00:00 12 23 Sudoeste 45 Sudoeste 0 -- -- 93
2020-02-01 04:00:00 12.1 30 Sudoeste 45 Sudoeste 0 -- -- 94
2020-02-01 03:00:00 12.4 28 Sudoeste 38 Sudoeste 0.2 -- -- 94
2020-02-01 02:00:00 11.4 20 Sudoeste 34 Sudoeste 0 -- -- 96
2020-02-01 01:00:00 11.3 22 Sudoeste 30 Sur 0 -- -- 95
2020-02-01 00:00:00 10.6 9 Sur 17 Sur 0 -- -- 96
2020-01-31 23:00:00 10.8 10 Sur 17 Sur 0.4 -- -- 96
2020-01-31 22:00:00 11.1 7 Sur 19 Sur 0 -- -- 94
2020-01-31 21:00:00 11 12 Sur 16 Sur 0 -- -- 95
2020-01-31 20:00:00 11.2 10 Sudoeste 22 Sudoeste 0 -- -- 94
2020-01-31 19:00:00 12.5 18 Sudoeste 30 Sudoeste 0 -- -- 88
2020-01-31 18:00:00 13 13 Sudoeste 23 Sudoeste 0 -- -- 86
2020-01-31 17:00:00 14.3 6 Sudoeste 23 Sudoeste 0 -- -- 79
2020-01-31 16:00:00 14.1 14 Oeste 29 Sudoeste 0 -- -- 76
2020-01-31 15:00:00 14.3 16 Sudoeste 31 Sudoeste 0 -- -- 78
2020-01-31 14:00:00 13 24 Sudoeste 32 Oeste 0 -- -- 83
2020-01-31 13:00:00 12.8 17 Sudoeste 24 Sudoeste 0 -- -- 87
2020-01-31 12:00:00 12.1 14 Sudoeste 21 Sudoeste 0 -- -- 89
2020-01-31 11:00:00 11.5 8 Sur 15 Sur 0 -- -- 94
2020-01-31 10:00:00 10.4 12 Sudoeste 21 Sudoeste 0 -- -- 98
2020-01-31 09:00:00 10 14 Sudoeste 18 Sudoeste 0 -- -- 96
2020-01-31 08:00:00 9.7 7 Sudoeste 11 Sudoeste 0 -- -- 98
2020-01-31 07:00:00 9.8 7 Sudoeste 15 Sudoeste 0 -- -- 98
2020-01-31 06:00:00 10.1 13 Sudoeste 18 Sudoeste 0 -- -- 97
2020-01-31 05:00:00 9.9 5 Sudoeste 12 Sudoeste 0 -- -- 98
2020-01-31 04:00:00 9.9 8 Sudoeste 22 Sudoeste 0 -- -- 98
2020-01-31 03:00:00 10.2 14 Sudoeste 19 Sudoeste 0 -- -- 97
2020-01-31 02:00:00 10.1 14 Sudoeste 19 Sudoeste 0.2 -- -- 99
2020-01-31 01:00:00 9.7 8 Sudoeste 13 Sudoeste 0.2 -- -- 100
2020-01-31 00:00:00 9.4 6 Sur 15 Sudoeste 0.2 -- -- 100
2020-01-30 23:00:00 9.7 15 Sudoeste 23 Sudoeste 0.2 -- -- 98
2020-01-30 22:00:00 9.5 8 Sudoeste 21 Sudoeste 0 -- -- 98
2020-01-30 21:00:00 9.6 15 Sudoeste 25 Sudoeste 0 -- -- 98
2020-01-30 20:00:00 9.2 7 Sudoeste 15 Sudoeste 0 -- -- 99
2020-01-30 19:00:00 9 5 Sudeste 10 Sur 0.6 -- -- 99
2020-01-30 18:00:00 9.1 8 Sur 17 Sur 0.8 -- -- 99
2020-01-30 17:00:00 9.3 13 Sur 24 Sudoeste 0 -- -- 96
2020-01-30 16:00:00 10.1 15 Sudoeste 26 Sudoeste 0 -- -- 89
2020-01-30 15:00:00 10.2 17 Sur 29 Sudoeste 0 -- -- 84
2020-01-30 14:00:00 10 21 Sudoeste 33 Sudoeste 0 -- -- 85
2020-01-30 13:00:00 10.1 12 Sudoeste 24 Sudoeste 0 -- -- 84
2020-01-30 12:00:00 9.4 18 Sudoeste 26 Sudoeste 0 -- -- 87
2020-01-30 11:00:00 8.5 15 Sudoeste 23 Sudoeste 0 -- -- 89
2020-01-30 10:00:00 7.8 11 Sudoeste 17 Sur 0.2 -- -- 91
2020-01-30 09:00:00 7.8 9 Sudoeste 24 Sudoeste 0 -- -- 88
2020-01-30 08:00:00 7.1 9 Sudoeste 21 Sudoeste 0 -- -- 93
2020-01-30 07:00:00 7.3 15 Sudoeste 20 Sudoeste 0 -- -- 94
2020-01-30 06:00:00 7.4 4 Sur 12 Sur 0 -- -- 93
2020-01-30 05:00:00 7.7 8 Sur 16 Sur 0 -- -- 93
2020-01-30 04:00:00 8.3 9 Sur 14 Sudoeste 0 -- -- 93
2020-01-30 03:00:00 8.8 11 Sudoeste 16 Sudoeste 0 -- -- 92
2020-01-30 02:00:00 8.7 10 Sudoeste 25 Sudoeste 0 -- -- 93
2020-01-30 01:00:00 9.3 15 Sudoeste 23 Sudoeste 0 -- -- 93
2020-01-30 00:00:00 9.1 10 Sudoeste 19 Sudoeste 0 -- -- 95
2020-01-29 23:00:00 9.6 16 Sudoeste 28 Sudoeste 0 -- -- 95
2020-01-29 22:00:00 10.1 18 Sudoeste 26 Sudoeste 0 -- -- 94
2020-01-29 21:00:00 10.2 14 Sudoeste 23 Sudoeste 0 -- -- 95
2020-01-29 20:00:00 10.2 12 Sudoeste 18 Sudoeste 0.2 -- -- 95
2020-01-29 19:00:00 10.4 14 Sudoeste 28 Sudoeste 0.2 -- -- 95
2020-01-29 18:00:00 11 15 Sudoeste 32 Oeste 0 -- -- 93
2020-01-29 17:00:00 11 24 Sudoeste 37 Sudoeste 0.2 -- -- 94
2020-01-29 16:00:00 11.6 13 Sudoeste 20 Sudoeste 0 -- -- 93
2020-01-29 15:00:00 10.7 10 Sudoeste 21 Sudoeste 0.2 -- -- 96
2020-01-29 14:00:00 10.5 13 Sudoeste 23 Sudoeste 0.4 -- -- 95
2020-01-29 13:00:00 10.1 14 Sur 25 Sudoeste 0.8 -- -- 96
2020-01-29 12:00:00 10.1 13 Sudoeste 19 Sur 0.4 -- -- 95
2020-01-29 11:00:00 9.4 12 Sur 16 Sudoeste 0.8 -- -- 97
2020-01-29 10:00:00 8.8 10 Sudoeste 16 Sudoeste 0.8 -- -- 98
2020-01-29 09:00:00 8.6 12 Sudoeste 21 Sudoeste 0.2 -- -- 97
2020-01-29 08:00:00 8.9 12 Sudoeste 24 Sudoeste 0 -- -- 94
2020-01-29 07:00:00 9.2 14 Sudoeste 24 Sudoeste 0 -- -- 94
2020-01-29 06:00:00 9.5 12 Sudoeste 22 Sudoeste 0 -- -- 94
2020-01-29 05:00:00 9.6 21 Sudoeste 29 Sudoeste 0 -- -- 94
2020-01-29 04:00:00 9.7 22 Sudoeste 30 Sudoeste 0 -- -- 93
2020-01-29 03:00:00 9.8 20 Sudoeste 32 Sudoeste 0 -- -- 93
2020-01-29 02:00:00 10 26 Sudoeste 37 Sudoeste 0 -- -- 93
2020-01-29 01:00:00 10.3 28 Sudoeste 40 Oeste 0 -- -- 93
2020-01-29 00:00:00 10.5 32 Sudoeste 43 Sudoeste 0 -- -- 93
2020-01-28 23:00:00 10.7 26 Sudoeste 37 Sudoeste 0 -- -- 93
2020-01-28 22:00:00 10.6 24 Sudoeste 35 Sudoeste 0.2 -- -- 93
2020-01-28 21:00:00 10.4 22 Sudoeste 33 Sudoeste 0 -- -- 95
2020-01-28 20:00:00 10.6 21 Sudoeste 32 Sudoeste 0 -- -- 94
2020-01-28 19:00:00 10.6 22 Sudoeste 35 Sudoeste 0 -- -- 94
2020-01-28 18:00:00 10.9 26 Sudoeste 33 Sudoeste 0 -- -- 94
2020-01-28 17:00:00 10.9 22 Sudoeste 37 Oeste 0.2 -- -- 96
2020-01-28 16:00:00 11.1 31 Sudoeste 41 Sudoeste 0.6 -- -- 95
2020-01-28 15:00:00 10.9 21 Sudoeste 35 Sudoeste 0.8 -- -- 98
2020-01-28 14:00:00 11 24 Sudoeste 40 Sudoeste 0.2 -- -- 98
2020-01-28 13:00:00 10.6 25 Oeste 32 Sudoeste 0.6 -- -- 99
2020-01-28 12:00:00 10.4 17 Sudoeste 31 Oeste 0 -- -- 100
2020-01-28 11:00:00 9.9 14 Sudoeste 20 Sudoeste 0.6 -- -- 100
2020-01-28 10:00:00 9.3 13 Sudoeste 19 Sudoeste 1.2 -- -- 100
2020-01-28 09:00:00 9.1 17 Sudoeste 27 Sudoeste 0.2 -- -- 99
2020-01-28 08:00:00 8.9 11 Sudoeste 21 Sudoeste 0 -- -- 97
2020-01-28 07:00:00 8.9 19 Sudoeste 26 Sudoeste 0 -- -- 96
2020-01-28 06:00:00 9 18 Sudoeste 26 Sudoeste 0 -- -- 96
2020-01-28 05:00:00 9.2 21 Sudoeste 33 Sudoeste 0 -- -- 96
2020-01-28 04:00:00 9.1 23 Sudoeste 34 Sudoeste 0.2 -- -- 95
2020-01-28 03:00:00 8.9 27 Sudoeste 41 Sudoeste 0.2 -- -- 95
2020-01-28 02:00:00 9.3 30 Sudoeste 41 Sudoeste 0 -- -- 90
2020-01-28 01:00:00 9.2 31 Sudoeste 45 Sudoeste 0 -- -- 89
2020-01-28 00:00:00 9.4 28 Sudoeste 39 Sudoeste 0 -- -- 86
2020-01-27 23:00:00 9.1 28 Sudoeste 42 Sudoeste 0 -- -- 90
2020-01-27 22:00:00 8.8 23 Sudoeste 34 Sudoeste 0 -- -- 91
2020-01-27 21:00:00 8.9 23 Sudoeste 42 Sudoeste 0 -- -- 86
2020-01-27 20:00:00 8.9 32 Sudoeste 49 Sudoeste 0 -- -- 84
2020-01-27 19:00:00 9.5 28 Sudoeste 48 Sudoeste 0 -- -- 83
2020-01-27 18:00:00 9.8 40 Sudoeste 61 Sudoeste 0 -- -- 83
2020-01-27 17:00:00 9.9 35 Sudoeste 53 Sudoeste 0 -- -- 84
2020-01-27 16:00:00 9.4 35 Sudoeste 60 Sudoeste 0 -- -- 85
2020-01-27 15:00:00 10.1 42 Sudoeste 65 Sudoeste 0 -- -- 81
2020-01-27 14:00:00 10 42 Sudoeste 59 Sudoeste 0 -- -- 80
2020-01-27 13:00:00 9.8 35 Sudoeste 48 Sudoeste 0 -- -- 82
2020-01-27 12:00:00 8.3 24 Sudoeste 39 Sudoeste 0.2 -- -- 90
2020-01-27 11:00:00 7.3 16 Sur 27 Sur 0 -- -- 86
2020-01-27 10:00:00 6.2 15 Sur 22 Sur 0 -- -- 89
2020-01-27 09:00:00 4.8 9 Sur 22 Sur 0 -- -- 92
2020-01-27 08:00:00 4.6 10 Sur 19 Sur 0 -- -- 93
2020-01-27 07:00:00 4.3 10 Sur 16 Sur 0 -- -- 93
2020-01-27 06:00:00 4.7 6 Sur 13 Sur 0 -- -- 91
2020-01-27 05:00:00 4.7 10 Sur 23 Sudoeste 0 -- -- 91
2020-01-27 04:00:00 5.1 16 Sudoeste 21 Sudoeste 0 -- -- 90
2020-01-27 03:00:00 4.6 8 Sur 17 Sur 0 -- -- 94
2020-01-27 02:00:00 4.9 8 Sudoeste 18 Sudoeste 0 -- -- 92
2020-01-27 01:00:00 5.9 15 Sudoeste 22 Sudoeste 0 -- -- 89
2020-01-27 00:00:00 6.1 8 Sur 14 Sur 0 -- -- 88
2020-01-26 23:00:00 6.3 9 Sur 21 Sudoeste 0 -- -- 87
2020-01-26 22:00:00 6.3 10 Sudoeste 16 Sudoeste 0 -- -- 86
2020-01-26 21:00:00 6.5 8 Sur 13 Sur 0 -- -- 85
2020-01-26 20:00:00 6.8 8 Sur 10 Sur 0 -- -- 84
2020-01-26 19:00:00 7 8 Oeste 15 Sudoeste 0 -- -- 82
2020-01-26 18:00:00 7.7 6 Oeste 14 Oeste 0 -- -- 80
2020-01-26 17:00:00 8.4 11 Oeste 23 Oeste 0 -- -- 75
2020-01-26 16:00:00 7.8 18 Oeste 27 Sudoeste 0 -- -- 81
2020-01-26 15:00:00 8.9 13 Oeste 23 Sudoeste 0 -- -- 95
2020-01-26 14:00:00 5.1 5 Oeste 13 Sudoeste 0 -- -- 97
2020-01-26 13:00:00 3.3 7 Sudoeste 13 Sudoeste 0 -- -- 100
2020-01-26 12:00:00 1.9 11 Sudoeste 15 Sudoeste 0 -- -- 100
2020-01-26 11:00:00 1.5 5 Sudoeste 10 Sudoeste 0 -- -- 100
2020-01-26 10:00:00 0.7 2 Sur 4 Sur 0 -- -- 100
2020-01-26 09:00:00 -0.1 0 Calma 0 Calma 0 -- -- 100
2020-01-26 08:00:00 -0.4 0 Calma -- -- 0 -- -- 100
2020-01-26 07:00:00 -0.8 0 Calma 5 Nordeste 0 -- -- 100
2020-01-26 06:00:00 -0.8 4 Nordeste 5 Nordeste 0 -- -- 100
2020-01-26 05:00:00 -0.4 4 Nordeste 6 Nordeste 0 -- -- 100
2020-01-26 04:00:00 0.2 0 Calma 3 Nordeste 0 -- -- 100
2020-01-26 03:00:00 1.2 2 Sur 3 Oeste 0.2 -- -- 100
2020-01-26 02:00:00 1.2 4 Noroeste 9 Oeste 0 -- -- 100
2020-01-26 01:00:00 1.7 8 Oeste 11 Oeste 0 -- -- 100
2020-01-26 00:00:00 1.9 3 Oeste 12 Noroeste 0 -- -- 100
2020-01-25 23:00:00 3 11 Noroeste 12 Noroeste 0 -- -- 100
2020-01-25 22:00:00 3.8 6 Noroeste 8 Noroeste 0 -- -- 98
2020-01-25 21:00:00 5.2 3 Norte 9 Noroeste 0 -- -- 96
2020-01-25 20:00:00 5.7 7 Noroeste 11 Noroeste 0 -- -- 97
2020-01-25 19:00:00 5.8 9 Noroeste 11 Noroeste 0 -- -- 95
2020-01-25 18:00:00 6.7 5 Noroeste 8 Noroeste 0.2 -- -- 92
2020-01-25 17:00:00 7.3 5 Noroeste 12 Noroeste 0.2 -- -- 87
2020-01-25 16:00:00 8 7 Norte 10 Norte 0 -- -- 84
2020-01-25 15:00:00 7.7 6 Norte 14 Norte 0 -- -- 81
2020-01-25 14:00:00 7.3 9 Norte 17 Nordeste 0 -- -- 86
2020-01-25 13:00:00 7.2 12 Nordeste 18 Nordeste 0 -- -- 87
2020-01-25 12:00:00 6.7 13 Nordeste 19 Nordeste 0.2 -- -- 90
2020-01-25 11:00:00 5 9 Norte 12 Nordeste 0.6 -- -- 97
2020-01-25 10:00:00 4.2 6 Nordeste 11 Este 0.8 -- -- 97
2020-01-25 09:00:00 3.6 6 Nordeste 10 Nordeste 0.6 -- -- 98
2020-01-25 08:00:00 3.1 12 Nordeste 15 Nordeste 0 -- -- 98
2020-01-25 07:00:00 2.6 14 Nordeste 19 Nordeste 0 -- -- 99
2020-01-25 06:00:00 2.4 5 Nordeste 9 Norte 0 -- -- 100
2020-01-25 05:00:00 1.6 7 Norte 11 Norte 0 -- -- 100
2020-01-25 04:00:00 1.3 7 Norte 9 Norte 0 -- -- 100
2020-01-25 03:00:00 1.4 8 Norte 10 Norte 0 -- -- 100
2020-01-25 02:00:00 1.8 10 Norte 12 Norte 0 -- -- 100
2020-01-25 01:00:00 2.1 9 Nordeste 12 Norte 0 -- -- 99
2020-01-25 00:00:00 2.6 4 Nordeste 7 Nordeste 0 -- -- 100
2020-01-24 23:00:00 1.8 3 Nordeste 5 Nordeste 0.2 -- -- 99
2020-01-24 22:00:00 3.9 2 Este 12 Nordeste 0 -- -- 99
2020-01-24 21:00:00 4.2 3 Nordeste 6 Nordeste 0 -- -- 97
2020-01-24 20:00:00 5.3 3 Este 11 Norte 0 -- -- 96
2020-01-24 19:00:00 5.6 6 Norte 9 Norte 0 -- -- 96
2020-01-24 18:00:00 6.1 3 Este 10 Este 0.2 -- -- 95
2020-01-24 17:00:00 6.8 7 Este 14 Este 0 -- -- 89
2020-01-24 16:00:00 6.9 7 Sudeste 13 Sudeste 0 -- -- 88
2020-01-24 15:00:00 7.5 8 Sudeste 19 Este 0 -- -- 83
2020-01-24 14:00:00 8.3 13 Este 20 Sudeste 0 -- -- 80
2020-01-24 13:00:00 10.1 9 Este 14 Este 0 -- -- 75
2020-01-24 12:00:00 6.8 6 Este 12 Este 0.2 -- -- 91
2020-01-24 11:00:00 5 0 Calma 6 Norte 0.2 -- -- 94
2020-01-24 10:00:00 3.6 4 Norte 8 Este 0.4 -- -- 95
2020-01-24 09:00:00 3.1 5 Este 10 Este 0.2 -- -- 95
2020-01-24 08:00:00 3.1 4 Este 7 Sudeste 0 -- -- 93
2020-01-24 07:00:00 3.3 4 Sudeste 8 Este 0 -- -- 92
2020-01-24 06:00:00 3.2 3 Sudeste 5 Sudeste 0 -- -- 92
2020-01-24 05:00:00 3.9 5 Sudeste 8 Nordeste 0 -- -- 89
2020-01-24 04:00:00 4.3 4 Nordeste 14 Este 0 -- -- 87
2020-01-24 03:00:00 5 12 Este 17 Este 0 -- -- 83
2020-01-24 02:00:00 4.6 11 Nordeste 15 Este 0 -- -- 84
2020-01-24 01:00:00 3.9 6 Nordeste 10 Este 0 -- -- 87
2020-01-24 00:00:00 3 3 Este 17 Este 0 -- -- 90
2020-01-23 23:00:00 3.9 13 Este 17 Este 0 -- -- 85
2020-01-23 22:00:00 4.8 12 Este 24 Sudeste 0 -- -- 82
2020-01-23 21:00:00 5.5 11 Sudeste 19 Sudeste 0 -- -- 79
2020-01-23 20:00:00 5.4 9 Sudeste 14 Sudeste 0 -- -- 80
2020-01-23 19:00:00 6.4 8 Sudeste 18 Este 0 -- -- 75
2020-01-23 18:00:00 8.4 9 Este 19 Este 0 -- -- 71
2020-01-23 17:00:00 10.6 13 Este 19 Este 0 -- -- 61
2020-01-23 16:00:00 10.5 13 Este 20 Nordeste 0 -- -- 61
2020-01-23 15:00:00 9.8 11 Este 15 Este 0 -- -- 65
2020-01-23 14:00:00 8.6 8 Este 15 Este 0 -- -- 69
2020-01-23 13:00:00 6.9 10 Este 21 Este 0 -- -- 74
2020-01-23 12:00:00 6.8 12 Este 21 Este 0 -- -- 74
2020-01-23 11:00:00 4.5 15 Nordeste 27 Nordeste 0 -- -- 83
2020-01-23 10:00:00 1.6 15 Nordeste 22 Nordeste 0 -- -- 93
2020-01-23 09:00:00 0 17 Nordeste 25 Nordeste 0 -- -- 96
2020-01-23 08:00:00 -0.9 18 Nordeste 22 Nordeste 0 -- -- 96
2020-01-23 07:00:00 -0.7 10 Norte 18 Nordeste 0 -- -- 96
2020-01-23 06:00:00 -0.1 11 Nordeste 16 Nordeste 0 -- -- 94
2020-01-23 05:00:00 -0.2 14 Nordeste 20 Norte 0 -- -- 94
2020-01-23 04:00:00 0.5 13 Nordeste 21 Nordeste 0 -- -- 94
2020-01-23 03:00:00 1.9 14 Nordeste 24 Nordeste 0 -- -- 91
2020-01-23 02:00:00 2.2 12 Nordeste 25 Nordeste 0 -- -- 90
2020-01-23 01:00:00 3.4 20 Nordeste 32 Nordeste 0 -- -- 85
2020-01-23 00:00:00 3 8 Nordeste 14 Este 0 -- -- 86
2020-01-22 23:00:00 5.3 15 Este 46 Este 0 -- -- 81
2020-01-22 22:00:00 5.1 21 Este 32 Este 0 -- -- 82
2020-01-22 21:00:00 6.1 21 Nordeste 33 Este 0 -- -- 79
2020-01-22 20:00:00 6.6 25 Nordeste 34 Nordeste 0 -- -- 77
2020-01-22 19:00:00 5.9 13 Nordeste 28 Nordeste 0 -- -- 78
2020-01-22 18:00:00 8.5 18 Nordeste 23 Nordeste 0 -- -- 70
2020-01-22 17:00:00 9.4 11 Nordeste 23 Nordeste 0 -- -- 65
2020-01-22 16:00:00 10.2 15 Este 31 Este 0 -- -- 61
2020-01-22 15:00:00 10.4 20 Nordeste 35 Nordeste 0 -- -- 63
2020-01-22 14:00:00 8.4 24 Nordeste 37 Este 0 -- -- 70
2020-01-22 13:00:00 8.4 27 Este 41 Nordeste 0 -- -- 70
2020-01-22 12:00:00 7.5 31 Nordeste 43 Nordeste 0 -- -- 75
2020-01-22 11:00:00 5.9 27 Nordeste 42 Nordeste 0 -- -- 80
2020-01-22 10:00:00 4.4 32 Nordeste 46 Nordeste 0 -- -- 84
2020-01-22 09:00:00 3.9 36 Nordeste 49 Nordeste 0 -- -- 86
2020-01-22 08:00:00 3.6 32 Nordeste 46 Nordeste 0 -- -- 88
2020-01-22 07:00:00 3.6 34 Nordeste 50 Nordeste 0 -- -- 88
2020-01-22 06:00:00 4 34 Nordeste 48 Nordeste 0 -- -- 87
2020-01-22 05:00:00 4 33 Nordeste 52 Nordeste 0 -- -- 86
2020-01-22 04:00:00 3.5 42 Nordeste 60 Nordeste 0 -- -- 87
2020-01-22 03:00:00 3.1 43 Nordeste 55 Nordeste 0 -- -- 88
2020-01-22 02:00:00 3.2 42 Nordeste 53 Nordeste 0 -- -- 88
2020-01-22 01:00:00 3.3 37 Nordeste 54 Nordeste 0 -- -- 86
2020-01-22 00:00:00 2.9 39 Nordeste 54 Nordeste 0 -- -- 85
2020-01-21 23:00:00 3 32 Nordeste 55 Nordeste 0 -- -- 86
2020-01-21 22:00:00 3.2 42 Nordeste 58 Nordeste 0 -- -- 86
2020-01-21 21:00:00 3.2 35 Nordeste 54 Nordeste 0 -- -- 85
2020-01-21 20:00:00 3.3 33 Nordeste 58 Nordeste 0 -- -- 84
2020-01-21 19:00:00 3.2 49 Nordeste 72 Nordeste 0 -- -- 85
2020-01-21 18:00:00 3.8 48 Nordeste 69 Nordeste 0 -- -- 83
2020-01-21 17:00:00 5 53 Nordeste 69 Nordeste 0 -- -- 75
2020-01-21 16:00:00 5.1 51 Nordeste 66 Nordeste 0 -- -- 75
2020-01-21 15:00:00 5.2 54 Nordeste 71 Nordeste 0 -- -- 73
2020-01-21 14:00:00 5.3 55 Nordeste 71 Nordeste 0 -- -- 71
2020-01-21 13:00:00 4.7 52 Nordeste 73 Nordeste 0 -- -- 73
2020-01-21 12:00:00 4.2 56 Nordeste 71 Nordeste 0 -- -- 73
2020-01-21 11:00:00 3.8 54 Nordeste 77 Nordeste 0 -- -- 72
2020-01-21 10:00:00 2.2 48 Nordeste 65 Nordeste 0 -- -- 75
2020-01-21 09:00:00 1.1 43 Nordeste 62 Nordeste 0 -- -- 77
2020-01-21 08:00:00 1 47 Nordeste 62 Nordeste 0 -- -- 77
2020-01-21 07:00:00 0.8 48 Nordeste 60 Nordeste 0 -- -- 78
2020-01-21 06:00:00 0.4 37 Nordeste 57 Nordeste 0 -- -- 79
2020-01-21 05:00:00 0.6 36 Nordeste 60 Nordeste 0 -- -- 78
2020-01-21 04:00:00 0.9 49 Nordeste 64 Nordeste 0 -- -- 78
2020-01-21 03:00:00 0.8 49 Nordeste 62 Nordeste 0 -- -- 77
2020-01-21 02:00:00 0.9 44 Nordeste 58 Nordeste 0 -- -- 81
2020-01-21 01:00:00 0.8 46 Nordeste 59 Nordeste 0 -- -- 79
2020-01-21 00:00:00 0.4 44 Nordeste 60 Nordeste 0 -- -- 80
2020-01-20 23:00:00 0.2 43 Nordeste 64 Nordeste 0 -- -- 77
2020-01-20 22:00:00 0.7 46 Nordeste 68 Nordeste 0 -- -- 73
2020-01-20 21:00:00 1.1 50 Nordeste 69 Nordeste 0 -- -- 70
2020-01-20 20:00:00 1.5 54 Nordeste 73 Nordeste 0 -- -- 70
2020-01-20 19:00:00 1.8 50 Nordeste 70 Nordeste 0 -- -- 67
2020-01-20 18:00:00 2.2 54 Nordeste 77 Nordeste 0 -- -- 65
2020-01-20 17:00:00 3 51 Nordeste 67 Nordeste 0 -- -- 63
2020-01-20 16:00:00 2.9 49 Nordeste 66 Nordeste 0 -- -- 62
2020-01-20 15:00:00 3.5 42 Nordeste 56 Nordeste 0 -- -- 56
2020-01-20 14:00:00 3 40 Nordeste 67 Nordeste 0 -- -- 58
2020-01-20 13:00:00 2.7 42 Nordeste 69 Nordeste 0 -- -- 60
2020-01-20 12:00:00 3.2 56 Nordeste 82 Nordeste 0 -- -- 55
2020-01-20 11:00:00 2.2 53 Nordeste 73 Nordeste 0 -- -- 59
2020-01-20 10:00:00 0.7 36 Nordeste 52 Nordeste 0 -- -- 71
2020-01-20 09:00:00 -0.4 34 Nordeste 51 Nordeste 0 -- -- 78
2020-01-20 08:00:00 -0.9 16 Nordeste 41 Nordeste 0 -- -- 80
2020-01-20 07:00:00 -0.2 23 Nordeste 44 Nordeste 0 -- -- 75
2020-01-20 06:00:00 -0.2 22 Nordeste 45 Nordeste 0 -- -- 76
2020-01-20 05:00:00 0.1 32 Nordeste 44 Nordeste 0 -- -- 75
2020-01-20 04:00:00 0.2 25 Nordeste 43 Nordeste 0 -- -- 75
2020-01-20 03:00:00 0.1 22 Nordeste 32 Nordeste 0 -- -- 73
2020-01-20 02:00:00 0.4 21 Nordeste 51 Nordeste 0 -- -- 74
2020-01-20 01:00:00 0.9 30 Nordeste 54 Nordeste 0 -- -- 72
2020-01-20 00:00:00 1.4 38 Nordeste 53 Nordeste 0 -- -- 72
2020-01-19 23:00:00 1.3 33 Nordeste 55 Nordeste 0 -- -- 72
2020-01-19 22:00:00 1.5 31 Nordeste 51 Nordeste 0 -- -- 68
2020-01-19 21:00:00 1.8 40 Nordeste 60 Nordeste 0 -- -- 62
2020-01-19 20:00:00 1.8 39 Nordeste 56 Norte 0 -- -- 64
2020-01-19 19:00:00 2.7 41 Nordeste 67 Nordeste 0 -- -- 60
2020-01-19 18:00:00 4.2 42 Nordeste 73 Nordeste 0 -- -- 55
2020-01-19 17:00:00 5.7 60 Nordeste 75 Nordeste 0 -- -- 49
2020-01-19 16:00:00 7.1 51 Nordeste 75 Nordeste 0 -- -- 51
2020-01-19 15:00:00 7.9 54 Nordeste 73 Nordeste 0 -- -- 53
2020-01-19 14:00:00 8 52 Nordeste 75 Norte 0 -- -- 54
2020-01-19 13:00:00 7.7 45 Nordeste 81 Nordeste 0 -- -- 53
2020-01-19 12:00:00 7 51 Nordeste 78 Nordeste 0 -- -- 54
2020-01-19 11:00:00 6.2 25 Nordeste 37 Nordeste 0 -- -- 78
2020-01-19 10:00:00 2.7 4 Nordeste 9 Nordeste 0 -- -- 90
2020-01-19 09:00:00 2 5 Norte 12 Nordeste 0 -- -- 93
2020-01-19 08:00:00 1.2 7 Nordeste 21 Norte 0 -- -- 95
2020-01-19 07:00:00 1.8 13 Norte 19 Norte 0 -- -- 94
2020-01-19 06:00:00 1.6 7 Nordeste 26 Norte 0.2 -- -- 97
2020-01-19 05:00:00 1.9 12 Noroeste 21 Noroeste 0 -- -- 95
2020-01-19 04:00:00 1.8 3 Oeste 11 Sudoeste 0 -- -- 96
2020-01-19 03:00:00 1.9 3 Oeste 15 Noroeste 0 -- -- 98
2020-01-19 02:00:00 2.4 7 Noroeste 12 Noroeste 0 -- -- 96
2020-01-19 01:00:00 3.7 6 Oeste 10 Noroeste 0 -- -- 94
2020-01-19 00:00:00 3.8 8 Oeste 12 Noroeste 0 -- -- 92
2020-01-18 23:00:00 3.4 8 Noroeste 15 Oeste 0 -- -- 91
2020-01-18 22:00:00 3.9 12 Oeste 22 Oeste 0 -- -- 89
2020-01-18 21:00:00 5.3 14 Oeste 35 Oeste 0 -- -- 83
2020-01-18 20:00:00 7.6 32 Oeste 48 Oeste 0 -- -- 81
2020-01-18 19:00:00 8.3 28 Oeste 77 Oeste 0.6 -- -- 80
2020-01-18 18:00:00 11.5 48 Oeste 70 Oeste 0 -- -- 74
2020-01-18 17:00:00 12.4 45 Sudoeste 68 Sudoeste 0 -- -- 77
2020-01-18 16:00:00 12.7 48 Sudoeste 62 Sudoeste 0 -- -- 79
2020-01-18 15:00:00 11.9 32 Sudoeste 54 Sudoeste 0 -- -- 82
2020-01-18 14:00:00 11.5 33 Sudoeste 45 Sudoeste 0 -- -- 87
2020-01-18 13:00:00 8.1 10 Sur 21 Sudeste 0 -- -- 98
2020-01-18 12:00:00 6.8 12 Sudeste 20 Sudeste 0.2 -- -- 98
2020-01-18 11:00:00 6.3 10 Este 15 Este 0.4 -- -- 97
2020-01-18 10:00:00 5.8 12 Sudeste 17 Sudeste 0 -- -- 96
2020-01-18 09:00:00 5.2 8 Este 13 Sudeste 0.2 -- -- 98
2020-01-18 08:00:00 4.6 6 Este 13 Este 0.4 -- -- 96
2020-01-18 07:00:00 4.5 5 Este 16 Este 0 -- -- 94
2020-01-18 06:00:00 4.5 8 Sudeste 19 Sudeste 0 -- -- 93
2020-01-18 05:00:00 3.9 3 Este 18 Este 0 -- -- 94
2020-01-18 04:00:00 4.2 5 Este 10 Este 0 -- -- 90
2020-01-18 03:00:00 3.9 5 Nordeste 8 Nordeste 0 -- -- 93
2020-01-18 02:00:00 4.5 3 Este 12 Este 0 -- -- 89
2020-01-18 01:00:00 3.9 4 Este 9 Nordeste 0 -- -- 91
2020-01-18 00:00:00 4.7 2 Norte 8 Nordeste 0 -- -- 85